KAIZ

Lee C Fine Memorial Airport

Kaiser/Lake Ozark, Missouri, USA
METAR KAIZ 240142Z AUTO 00000KT 10SM SCT055 SCT070 23/20 A3011 RMK AO2 TSB18E36
Observed Flight Rules
May-24 @ 01:42 UTC (16 minutes ago) Visual Flight Rules
Visibility Clouds
10 miles
  • Scattered at 5,500' AGL
  • Scattered at 7,000' AGL
Temperatures Readings
Current 23°C / 73°F
Dewpoint 20°C / 68°F
Humidity 83%
Altimeter 30.11" Hg
Pressure 1020 hPa
Elevation 265
METAR KAIZ 240142Z AUTO 00000KT 10SM SCT055 SCT070 23/20 A3011 RMK AO2 TSB18E36
Observed Flight Rules
May-24 @ 01:42 UTC
(16 minutes ago)
VFR
Clouds
  • Scattered at 5,500' AGL
  • Scattered at 7,000' AGL
Temperature Dewpoint
23°C / 73°F 20°C / 68°F
Humidity Altimeter Pressure
83% 30.11" Hg 1020 hPa